createdAt,value
2023-05-19T00:01:26.622Z,72.66
2023-05-19T00:04:19.869Z,72.63
2023-05-19T00:07:13.991Z,72.98
2023-05-19T00:09:51.754Z,72.98
2023-05-19T00:12:44.639Z,73.13
2023-05-19T00:15:37.739Z,73.23
2023-05-19T00:18:30.521Z,73.26
2023-05-19T00:21:23.013Z,73.09
2023-05-19T00:24:15.154Z,73.13
2023-05-19T00:27:07.433Z,73.12
2023-05-19T00:29:59.470Z,73.30
2023-05-19T00:32:51.532Z,73.21
2023-05-19T00:35:43.615Z,73.50
2023-05-19T00:38:37.512Z,73.71
2023-05-19T00:41:30.382Z,73.79
2023-05-19T00:44:22.389Z,73.83
2023-05-19T00:47:14.437Z,73.69
2023-05-19T00:50:07.144Z,73.72
2023-05-19T00:52:59.292Z,73.68
2023-05-19T00:55:52.822Z,73.70
2023-05-19T00:58:45.265Z,73.75
2023-05-19T01:01:37.664Z,73.50
2023-05-19T01:04:34.782Z,73.47
2023-05-19T01:07:27.326Z,73.53
2023-05-19T01:10:19.494Z,73.58
2023-05-19T01:13:11.543Z,73.63
2023-05-19T01:16:12.446Z,73.53
2023-05-19T01:19:15.358Z,73.54
2023-05-19T01:22:38.121Z,73.65
2023-05-19T01:26:00.837Z,73.77
2023-05-19T01:29:17.892Z,73.77
2023-05-19T01:32:11.862Z,73.87
2023-05-19T01:35:06.584Z,73.64
2023-05-19T01:38:00.184Z,73.71
2023-05-19T01:40:53.275Z,73.70
2023-05-19T01:43:45.670Z,73.51
2023-05-19T01:46:38.582Z,73.33
2023-05-19T01:49:30.714Z,73.22
2023-05-19T01:52:22.772Z,73.63
2023-05-19T01:55:14.823Z,74.06
2023-05-19T01:58:12.026Z,73.97
2023-05-19T02:01:10.916Z,73.86
2023-05-19T02:04:19.678Z,74.03
2023-05-19T02:07:18.395Z,73.92
2023-05-19T02:10:16.105Z,74.11
2023-05-19T02:13:11.995Z,74.03
2023-05-19T02:16:07.472Z,73.96
2023-05-19T02:18:59.948Z,73.86
2023-05-19T02:21:52.290Z,74.02
2023-05-19T02:24:45.024Z,74.03
2023-05-19T02:27:37.892Z,74.08
2023-05-19T02:30:32.020Z,74.07
2023-05-19T02:33:24.689Z,74.00
2023-05-19T02:36:16.693Z,74.07
2023-05-19T02:39:08.797Z,74.27
2023-05-19T02:42:00.799Z,74.20
2023-05-19T02:44:54.188Z,74.23
2023-05-19T02:47:46.338Z,74.22
2023-05-19T02:50:38.424Z,74.32
2023-05-19T02:53:31.372Z,74.38
2023-05-19T02:56:23.627Z,74.20
2023-05-19T02:59:15.806Z,74.11
2023-05-19T03:01:50.616Z,74.18
2023-05-19T03:04:43.049Z,74.43
2023-05-19T03:07:35.093Z,74.52
2023-05-19T03:10:27.146Z,74.56
2023-05-19T03:13:19.216Z,74.81
2023-05-19T03:16:11.913Z,74.83
2023-05-19T03:19:04.139Z,74.72
2023-05-19T03:21:56.996Z,74.85
2023-05-19T03:24:36.617Z,74.76
2023-05-19T03:27:28.636Z,74.88
2023-05-19T03:30:20.808Z,74.81
2023-05-19T03:33:13.060Z,74.55
2023-05-19T03:36:05.606Z,74.54
2023-05-19T03:38:57.604Z,74.53
2023-05-19T03:41:49.844Z,74.62
2023-05-19T03:44:41.851Z,74.62
2023-05-19T03:47:33.901Z,74.47
2023-05-19T03:50:29.050Z,74.19
2023-05-19T03:53:21.093Z,74.24
2023-05-19T03:56:13.929Z,74.06
2023-05-19T03:59:07.072Z,74.13
2023-05-19T04:01:59.058Z,74.14
2023-05-19T04:04:51.626Z,74.11
2023-05-19T04:07:45.089Z,73.92
2023-05-19T04:10:37.103Z,73.84
2023-05-19T04:13:29.122Z,73.55
2023-05-19T04:16:21.307Z,73.34
2023-05-19T04:19:13.457Z,73.36
2023-05-19T04:22:05.758Z,73.68
2023-05-19T04:24:58.353Z,73.68
2023-05-19T04:27:50.386Z,73.65
2023-05-19T04:30:42.605Z,73.93
2023-05-19T04:33:34.586Z,74.09
2023-05-19T04:36:26.554Z,73.85
2023-05-19T04:39:18.555Z,74.00
2023-05-19T04:42:11.606Z,73.90
2023-05-19T04:45:05.351Z,73.41
2023-05-19T04:47:58.572Z,73.21
2023-05-19T04:50:51.881Z,73.23
2023-05-19T04:53:44.800Z,73.15
2023-05-19T04:56:36.827Z,73.22
2023-05-19T04:59:28.849Z,73.17
2023-05-19T05:02:21.117Z,73.03
2023-05-19T05:05:13.438Z,73.06
2023-05-19T05:08:05.517Z,73.14
2023-05-19T05:10:58.481Z,73.25
2023-05-19T05:13:51.429Z,73.17
2023-05-19T05:16:44.456Z,73.22
2023-05-19T05:19:37.582Z,73.23
2023-05-19T05:22:30.639Z,73.15
2023-05-19T05:25:24.230Z,73.16
2023-05-19T05:28:16.600Z,72.69
2023-05-19T05:31:08.778Z,72.71
2023-05-19T05:34:01.028Z,72.96
2023-05-19T05:36:53.103Z,72.92
2023-05-19T05:39:45.230Z,72.60
2023-05-19T05:42:37.218Z,72.73
2023-05-19T05:45:29.416Z,72.94
2023-05-19T05:48:22.582Z,73.06
2023-05-19T05:51:15.153Z,72.77
2023-05-19T05:54:09.851Z,72.97
2023-05-19T05:57:03.400Z,72.72
2023-05-19T05:59:55.507Z,72.68
2023-05-19T06:02:48.378Z,72.61
2023-05-19T06:05:25.306Z,72.26
2023-05-19T06:08:17.754Z,72.36
2023-05-19T06:11:09.860Z,72.28
2023-05-19T06:14:01.905Z,72.47
2023-05-19T06:16:54.007Z,72.18
2023-05-19T06:19:46.073Z,72.26
2023-05-19T06:22:38.319Z,72.17
2023-05-19T06:25:30.806Z,72.17
2023-05-19T06:28:22.977Z,71.86
2023-05-19T06:31:15.022Z,71.84
2023-05-19T06:34:07.077Z,71.78
2023-05-19T06:36:59.167Z,71.87
2023-05-19T06:39:52.675Z,71.73
2023-05-19T06:42:44.843Z,71.61
2023-05-19T06:45:36.912Z,71.73
2023-05-19T06:48:29.009Z,71.72
2023-05-19T06:51:22.362Z,71.56
2023-05-19T06:54:16.121Z,71.49
2023-05-19T06:57:08.513Z,70.84
2023-05-19T07:00:00.560Z,70.99
2023-05-19T07:02:52.671Z,70.96
2023-05-19T07:05:44.785Z,70.82
2023-05-19T07:08:37.248Z,70.02
2023-05-19T07:11:29.307Z,69.82
2023-05-19T07:14:21.594Z,69.45
2023-05-19T07:17:13.842Z,69.05
2023-05-19T07:20:10.006Z,68.92
2023-05-19T07:23:02.901Z,69.40
2023-05-19T07:25:57.748Z,69.14
2023-05-19T07:28:49.827Z,69.15
2023-05-19T07:31:41.915Z,68.77
2023-05-19T07:34:34.057Z,68.98
2023-05-19T07:37:26.304Z,69.30
2023-05-19T07:40:18.301Z,69.52
2023-05-19T07:43:11.323Z,69.04
2023-05-19T07:46:03.405Z,69.52
2023-05-19T07:48:55.407Z,69.33
2023-05-19T07:51:47.485Z,68.93
2023-05-19T07:54:39.504Z,68.97
2023-05-19T07:57:32.378Z,68.84
2023-05-19T08:00:24.649Z,69.05
2023-05-19T08:03:18.401Z,69.09
2023-05-19T08:06:10.556Z,68.99
2023-05-19T08:09:02.619Z,68.79
2023-05-19T08:11:54.696Z,69.35
2023-05-19T08:14:46.713Z,69.37
2023-05-19T08:17:39.067Z,69.16
2023-05-19T08:20:31.474Z,68.95
2023-05-19T08:23:24.166Z,68.88
2023-05-19T08:26:16.340Z,69.01
2023-05-19T08:29:08.368Z,68.52
2023-05-19T08:32:00.433Z,67.97
2023-05-19T08:34:52.580Z,68.67
2023-05-19T08:37:44.697Z,68.94
2023-05-19T08:40:38.715Z,68.89
2023-05-19T08:43:19.052Z,68.66
2023-05-19T08:46:16.414Z,67.81
2023-05-19T08:49:21.576Z,67.88
2023-05-19T08:52:24.385Z,68.30
2023-05-19T08:55:27.680Z,68.05
2023-05-19T08:58:22.698Z,68.53
2023-05-19T09:01:17.209Z,68.01
2023-05-19T09:04:10.121Z,68.31
2023-05-19T09:07:04.115Z,68.17
2023-05-19T09:09:56.414Z,68.21
2023-05-19T09:12:49.777Z,68.32
2023-05-19T09:15:43.491Z,67.72
2023-05-19T09:18:35.624Z,67.72
2023-05-19T09:21:34.226Z,67.52
2023-05-19T09:24:28.142Z,67.62
2023-05-19T09:27:24.461Z,67.30
2023-05-19T09:30:18.485Z,67.19
2023-05-19T09:33:10.879Z,66.80
2023-05-19T09:36:03.596Z,66.73
2023-05-19T09:38:55.615Z,66.60
2023-05-19T09:41:48.442Z,66.72
2023-05-19T09:44:40.466Z,66.83
2023-05-19T09:47:37.428Z,66.65
2023-05-19T09:50:30.720Z,66.81
2023-05-19T09:53:24.114Z,66.67
2023-05-19T09:56:17.339Z,66.46
2023-05-19T09:59:09.400Z,66.57
2023-05-19T10:02:02.568Z,66.78
2023-05-19T10:04:56.109Z,66.84
2023-05-19T10:07:51.518Z,66.47
2023-05-19T10:10:44.142Z,66.70
2023-05-19T10:13:38.846Z,66.54
2023-05-19T10:16:32.804Z,66.65
2023-05-19T10:19:26.563Z,66.86
2023-05-19T10:22:19.591Z,66.72
2023-05-19T10:25:15.077Z,66.61
2023-05-19T10:28:11.358Z,66.28
2023-05-19T10:31:07.029Z,66.32
2023-05-19T10:34:15.266Z,66.11
2023-05-19T10:37:15.136Z,66.03
2023-05-19T10:40:14.775Z,66.05
2023-05-19T10:43:19.229Z,66.33
2023-05-19T10:46:11.399Z,66.26
2023-05-19T10:49:03.466Z,65.89
2023-05-19T10:51:57.920Z,66.03
2023-05-19T10:54:51.371Z,66.27
2023-05-19T10:58:03.944Z,66.10
2023-05-19T11:01:02.770Z,65.91
2023-05-19T11:03:52.164Z,65.58
2023-05-19T11:06:53.585Z,65.17
2023-05-19T11:09:50.060Z,65.32
2023-05-19T11:12:46.746Z,65.10
2023-05-19T11:15:38.818Z,64.79
2023-05-19T11:18:33.948Z,65.07
2023-05-19T11:21:26.422Z,65.02
2023-05-19T11:24:44.669Z,64.68
2023-05-19T11:27:38.465Z,64.64
2023-05-19T11:30:31.778Z,64.90
2023-05-19T11:33:27.371Z,64.67
2023-05-19T11:36:21.717Z,64.40
2023-05-19T11:39:15.262Z,63.92
2023-05-19T11:42:07.362Z,63.95
2023-05-19T11:44:59.378Z,63.57
2023-05-19T11:48:02.075Z,62.80
2023-05-19T11:50:56.760Z,62.31
2023-05-19T11:53:54.258Z,63.23
2023-05-19T11:56:46.340Z,63.10
2023-05-19T11:59:40.538Z,62.95
2023-05-19T12:02:32.851Z,63.15
2023-05-19T12:05:26.299Z,63.23
2023-05-19T12:08:19.466Z,63.13
2023-05-19T12:11:11.608Z,63.30
2023-05-19T12:14:04.366Z,63.23
2023-05-19T12:16:56.386Z,63.35
2023-05-19T12:19:50.283Z,62.84
2023-05-19T12:22:31.482Z,62.90
2023-05-19T12:25:24.367Z,63.04
2023-05-19T12:28:17.158Z,63.06
2023-05-19T12:31:09.405Z,63.19
2023-05-19T12:34:02.111Z,63.32
2023-05-19T12:36:54.168Z,63.38
2023-05-19T12:39:46.715Z,63.81
2023-05-19T12:42:38.771Z,64.00
2023-05-19T12:45:34.927Z,63.57
2023-05-19T12:48:27.020Z,63.75
2023-05-19T12:51:22.176Z,63.59
2023-05-19T12:54:14.592Z,63.54
2023-05-19T12:57:07.919Z,63.74
2023-05-19T13:00:06.856Z,63.26
2023-05-19T13:03:01.545Z,63.72
2023-05-19T13:05:53.914Z,63.72
2023-05-19T13:08:47.938Z,63.49
2023-05-19T13:11:40.387Z,63.34
2023-05-19T13:14:32.457Z,63.56
2023-05-19T13:17:24.643Z,63.76
2023-05-19T13:20:16.780Z,64.15
2023-05-19T13:23:08.932Z,64.08
2023-05-19T13:26:00.999Z,63.73
2023-05-19T13:28:53.013Z,63.78
2023-05-19T13:31:36.259Z,63.75
2023-05-19T13:34:28.434Z,63.79
2023-05-19T13:37:20.583Z,64.07
2023-05-19T13:40:15.669Z,64.24
2023-05-19T13:43:08.497Z,63.66
2023-05-19T13:46:00.631Z,63.95
2023-05-19T13:48:38.239Z,64.31
2023-05-19T13:51:30.211Z,64.21
2023-05-19T13:54:05.233Z,64.24
2023-05-19T13:56:57.410Z,63.90
2023-05-19T14:00:00.897Z,63.96
2023-05-19T14:02:54.456Z,63.72
2023-05-19T14:05:46.502Z,63.78
2023-05-19T14:08:38.566Z,63.44
2023-05-19T14:11:30.791Z,63.79
2023-05-19T14:14:22.845Z,63.93
2023-05-19T14:17:14.919Z,64.48
2023-05-19T14:20:08.785Z,64.37
2023-05-19T14:23:00.821Z,64.58
2023-05-19T14:25:52.856Z,64.67
2023-05-19T14:28:44.903Z,64.93
2023-05-19T14:31:37.440Z,64.68
2023-05-19T14:34:29.553Z,64.57
2023-05-19T14:37:21.672Z,64.91
2023-05-19T14:40:15.026Z,64.79
2023-05-19T14:43:07.098Z,64.58
2023-05-19T14:45:59.341Z,65.04
2023-05-19T14:48:34.316Z,65.16
2023-05-19T14:51:26.367Z,65.07
2023-05-19T14:54:18.355Z,65.30
2023-05-19T14:57:18.738Z,65.34
2023-05-19T15:00:12.135Z,65.45
2023-05-19T15:03:04.210Z,65.66
2023-05-19T15:05:56.281Z,65.62
2023-05-19T15:08:48.334Z,65.73
2023-05-19T15:11:30.176Z,65.83
2023-05-19T15:14:22.291Z,65.45
2023-05-19T15:17:14.777Z,65.58
2023-05-19T15:20:08.252Z,65.92
2023-05-19T15:23:00.498Z,65.54
2023-05-19T15:25:53.112Z,65.48
2023-05-19T15:28:45.202Z,65.59
2023-05-19T15:31:38.470Z,65.68
2023-05-19T15:34:15.785Z,66.07
2023-05-19T15:37:08.176Z,66.57
2023-05-19T15:40:00.500Z,66.75
2023-05-19T15:42:52.665Z,66.76
2023-05-19T15:45:44.886Z,66.94
2023-05-19T15:48:36.905Z,66.98
2023-05-19T15:51:29.194Z,67.17
2023-05-19T15:54:09.788Z,67.25
2023-05-19T15:57:01.761Z,67.26
2023-05-19T15:59:53.864Z,67.44
2023-05-19T16:02:46.246Z,67.41
2023-05-19T16:05:38.334Z,67.75
2023-05-19T16:08:30.445Z,67.42
2023-05-19T16:11:23.356Z,67.73
2023-05-19T16:14:15.420Z,68.00
2023-05-19T16:17:11.665Z,67.77
2023-05-19T16:20:03.974Z,68.03
2023-05-19T16:22:56.413Z,68.19
2023-05-19T16:25:49.566Z,68.28
2023-05-19T16:28:41.612Z,68.27
2023-05-19T16:31:33.628Z,68.43
2023-05-19T16:34:26.182Z,68.47
2023-05-19T16:37:19.103Z,68.68
2023-05-19T16:40:12.438Z,68.66
2023-05-19T16:43:04.473Z,68.66
2023-05-19T16:45:57.050Z,68.77
2023-05-19T16:48:49.103Z,69.07
2023-05-19T16:51:41.198Z,69.22
2023-05-19T16:54:33.203Z,69.32
2023-05-19T16:57:25.232Z,69.55
2023-05-19T17:00:18.177Z,69.52
2023-05-19T17:03:11.671Z,69.71
2023-05-19T17:06:04.561Z,69.82
2023-05-19T17:08:57.462Z,70.00
2023-05-19T17:11:32.490Z,70.06
2023-05-19T17:14:24.837Z,70.19
2023-05-19T17:17:16.874Z,70.18
2023-05-19T17:20:11.580Z,70.19
2023-05-19T17:23:03.709Z,70.48
2023-05-19T17:25:57.683Z,70.58
2023-05-19T17:28:49.713Z,70.91
2023-05-19T17:31:41.891Z,70.84
2023-05-19T17:34:33.962Z,70.73
2023-05-19T17:37:26.037Z,70.82
2023-05-19T17:40:24.288Z,70.69
2023-05-19T17:43:19.893Z,70.75
2023-05-19T17:46:12.344Z,70.85
2023-05-19T17:49:04.491Z,71.08
2023-05-19T17:51:57.458Z,71.12
2023-05-19T17:54:50.516Z,71.27
2023-05-19T17:57:47.162Z,71.40
2023-05-19T18:00:40.236Z,71.49
2023-05-19T18:03:33.480Z,71.35
2023-05-19T18:06:27.719Z,71.48
2023-05-19T18:09:25.956Z,71.60
2023-05-19T18:12:19.253Z,71.69
2023-05-19T18:15:12.443Z,71.80
2023-05-19T18:18:07.474Z,71.88
2023-05-19T18:20:59.549Z,71.92
2023-05-19T18:23:51.867Z,72.09
2023-05-19T18:26:43.958Z,72.13
2023-05-19T18:29:53.590Z,72.21
2023-05-19T18:32:45.668Z,72.33
2023-05-19T18:35:38.625Z,72.46
2023-05-19T18:38:30.724Z,72.50
2023-05-19T18:41:22.912Z,72.43
2023-05-19T18:44:15.524Z,72.50
2023-05-19T18:47:07.773Z,72.58
2023-05-19T18:50:00.085Z,72.50
2023-05-19T18:52:52.327Z,72.78
2023-05-19T18:55:44.501Z,72.83
2023-05-19T18:58:36.619Z,73.15
2023-05-19T19:01:28.969Z,73.16
2023-05-19T19:04:07.737Z,73.04
2023-05-19T19:07:01.801Z,73.20
2023-05-19T19:09:55.242Z,73.39
2023-05-19T19:12:49.102Z,73.60
2023-05-19T19:15:43.166Z,73.44
2023-05-19T19:18:37.411Z,73.54
2023-05-19T19:21:31.808Z,73.71
2023-05-19T19:24:26.307Z,73.39
2023-05-19T19:27:20.512Z,73.50
2023-05-19T19:30:13.483Z,73.85
2023-05-19T19:33:06.823Z,73.85
2023-05-19T19:35:59.058Z,73.88
2023-05-19T19:38:51.134Z,73.97
2023-05-19T19:41:43.223Z,73.88
2023-05-19T19:44:35.313Z,73.77
2023-05-19T19:47:27.574Z,73.83
2023-05-19T19:50:19.766Z,74.04
2023-05-19T19:53:11.824Z,74.24
2023-05-19T19:56:05.275Z,74.36
2023-05-19T19:58:59.096Z,74.35
2023-05-19T20:01:51.436Z,74.46
2023-05-19T20:04:43.639Z,74.61
2023-05-19T20:07:23.075Z,74.84
2023-05-19T20:10:13.797Z,75.01
2023-05-19T20:13:05.903Z,75.06
2023-05-19T20:15:58.056Z,74.83
2023-05-19T20:18:50.571Z,74.94
2023-05-19T20:21:42.707Z,75.02
2023-05-19T20:24:34.731Z,75.18
2023-05-19T20:27:26.749Z,75.37
2023-05-19T20:30:19.038Z,75.32
2023-05-19T20:33:12.002Z,75.37
2023-05-19T20:36:04.481Z,75.20
2023-05-19T20:38:56.759Z,75.30
2023-05-19T20:41:48.782Z,75.49
2023-05-19T20:44:40.773Z,75.48
2023-05-19T20:47:32.886Z,75.41
2023-05-19T20:50:25.082Z,75.29
2023-05-19T20:53:17.120Z,75.36
2023-05-19T20:56:10.538Z,75.50
2023-05-19T20:59:02.600Z,75.75
2023-05-19T21:01:54.826Z,75.73
2023-05-19T21:04:46.992Z,75.49
2023-05-19T21:07:39.060Z,75.33
2023-05-19T21:10:31.292Z,75.40
2023-05-19T21:13:23.416Z,75.77
2023-05-19T21:16:15.507Z,75.79
2023-05-19T21:18:52.678Z,75.92
2023-05-19T21:21:47.109Z,75.75
2023-05-19T21:24:39.226Z,75.53
2023-05-19T21:27:32.832Z,75.57
2023-05-19T21:30:25.217Z,75.69
2023-05-19T21:33:17.421Z,75.87
2023-05-19T21:36:10.198Z,75.97
2023-05-19T21:39:02.325Z,75.98
2023-05-19T21:41:54.380Z,75.86
2023-05-19T21:44:46.569Z,75.72
2023-05-19T21:47:38.914Z,75.96
2023-05-19T21:50:31.000Z,76.08
2023-05-19T21:53:05.996Z,76.14
2023-05-19T21:55:58.044Z,76.20
2023-05-19T21:58:50.146Z,75.99
2023-05-19T22:01:42.272Z,76.08
2023-05-19T22:04:34.407Z,76.35
2023-05-19T22:07:27.016Z,76.48
2023-05-19T22:10:19.268Z,76.48
2023-05-19T22:13:11.671Z,76.35
2023-05-19T22:16:04.668Z,76.35
2023-05-19T22:18:56.939Z,76.60
2023-05-19T22:21:34.316Z,76.81
2023-05-19T22:24:16.028Z,76.84
2023-05-19T22:27:09.064Z,76.93
2023-05-19T22:29:51.051Z,76.70
2023-05-19T22:32:43.125Z,76.57
2023-05-19T22:35:35.299Z,76.78
2023-05-19T22:38:27.324Z,76.99
2023-05-19T22:41:19.355Z,76.99
2023-05-19T22:44:15.392Z,76.92
2023-05-19T22:46:57.753Z,76.95
2023-05-19T22:49:50.653Z,77.20
2023-05-19T22:52:42.659Z,77.31
2023-05-19T22:55:35.017Z,77.35
2023-05-19T22:58:17.505Z,77.00
2023-05-19T23:01:09.740Z,77.05
2023-05-19T23:04:01.831Z,77.24
2023-05-19T23:06:54.006Z,77.26
2023-05-19T23:09:46.085Z,77.38
2023-05-19T23:12:38.229Z,77.44
2023-05-19T23:15:30.248Z,77.47
2023-05-19T23:18:22.288Z,77.56
2023-05-19T23:21:15.127Z,77.65
2023-05-19T23:24:08.013Z,77.67
2023-05-19T23:27:01.108Z,77.75
2023-05-19T23:29:53.557Z,77.93
2023-05-19T23:32:45.634Z,78.11
2023-05-19T23:35:39.524Z,77.93
2023-05-19T23:38:31.550Z,77.75
2023-05-19T23:41:23.534Z,77.74
2023-05-19T23:44:15.668Z,77.69
2023-05-19T23:47:08.072Z,77.44
2023-05-19T23:50:00.201Z,77.54
2023-05-19T23:52:52.234Z,77.71
2023-05-19T23:55:29.661Z,77.58
2023-05-19T23:58:23.288Z,77.37
